Have a Safe July 4th! 

Flight Track Log - Related Links

Times and Time Zones

All times are in EDT time to prevent confusion due to time zone crossing. See the SKW6425 flight status page for this flight to view local times or setup timezone preferences in your user account.

Time Position Orientation Groundspeed Altitude Reporting Facility
EDT Latitude Longitude Course Direction KTS MPH feet Rate Location/Type
Thu 09:45:00 AM 50.3833 -104.6333 54° Northeast 170 196 3,500  Level Winnipeg Center
Thu 09:46:00 AM 50.3500 -104.5500 122° Southeast 220 253 5,400 1,750 Climbing Winnipeg Center
Thu 09:47:00 AM 50.3000 -104.4667 133° Southeast 280 322 7,000 1,850 Climbing Winnipeg Center
Thu 09:48:00 AM 50.1868 -104.0017 90° East  Level Estimated
Thu 09:48:00 AM 50.2667 -104.3500 114° Southeast 300 345 9,100  Level Winnipeg Center
Thu 09:49:00 AM 50.1249 -103.8367 93° East  Level Estimated
Thu 09:49:00 AM 50.2167 -104.2500 128° Southeast 310 357 11,400  Level Winnipeg Center
Thu 09:50:00 AM 50.1945 -103.6888 54° Northeast  Level FlightAware Approximate
Thu 09:50:00 AM 50.1667 -104.1000 117° Southeast 330 380 12,600  Level Winnipeg Center
Thu 09:51:00 AM 50.1167 -103.9667 120° Southeast 360 414 14,400 1,600 Climbing Winnipeg Center
Thu 09:52:00 AM 50.0500 -103.8500 132° Southeast 370 426 15,800 1,400 Climbing Winnipeg Center
Thu 09:53:00 AM 50.0000 -103.7167 120° Southeast 380 437 17,200 1,300 Climbing Winnipeg Center
Thu 09:54:00 AM 49.9333 -103.5667 125° Southeast 390 449 18,400 1,200 Climbing Winnipeg Center
Thu 09:55:00 AM 49.8833 -103.4333 120° Southeast 390 449 19,600 1,100 Climbing Winnipeg Center
Thu 09:56:00 AM 49.8167 -103.2667 122° Southeast 400 460 20,600 950 Climbing Winnipeg Center
Thu 09:57:00 AM 49.7667 -103.1333 120° Southeast 410 472 21,500 950 Climbing Winnipeg Center
Thu 09:58:00 AM 49.6833 -102.9667 128° Southeast 420 483 22,500 950 Climbing Winnipeg Center
Thu 09:59:00 AM 49.6333 -102.8333 120° Southeast 420 483 23,400 900 Climbing Winnipeg Center
Thu 10:00:00 AM 49.5500 -102.6667 128° Southeast 430 495 24,300 800 Climbing Winnipeg Center
Thu 10:01:00 AM 49.5000 -102.5333 120° Southeast 430 495 25,000 650 Climbing Winnipeg Center
Thu 10:02:00 AM 49.4167 -102.3667 128° Southeast 430 495 25,600 650 Climbing Winnipeg Center
Thu 10:03:00 AM 49.3500 -102.2000 122° Southeast 440 506 26,300 550 Climbing Winnipeg Center
Thu 10:04:00 AM 49.2833 -102.0500 124° Southeast 440 506 26,700 450 Climbing Winnipeg Center
Thu 10:05:00 AM 49.2167 -101.8833 121° Southeast 450 518 27,200 500 Climbing Winnipeg Center
Thu 10:06:00 AM 49.1500 -101.7167 121° Southeast 450 518 27,700 555 Climbing Winnipeg Center
Thu 10:06:59 AM 49.0667 -101.5667 130° Southeast 460 529 28,300 500 Climbing Winnipeg Center
Thu 10:08:00 AM 49.0000 -101.4333 127° Southeast 460 529 28,700 446 Climbing Winnipeg Center
Thu 10:09:00 AM 48.9333 -101.2500 119° Southeast 460 529 29,200 400 Climbing Winnipeg Center
Thu 10:10:00 AM 48.8500 -101.0833 127° Southeast 460 529 29,500 300 Climbing Winnipeg Center
Thu 10:11:00 AM 48.7667 -100.9333 130° Southeast 470 541 29,800 300 Climbing Winnipeg Center
Thu 10:12:00 AM 48.7000 -100.7667 121° Southeast 470 541 30,100 350 Climbing Winnipeg Center
Thu 10:13:00 AM 48.6167 -100.5833 124° Southeast 480 552 30,500 403 Climbing Winnipeg Center
Thu 10:13:59 AM 48.5333 -100.4500 133° Southeast 480 552 30,900 400 Climbing Winnipeg Center
Thu 10:14:30 AM 48.5269 -100.3636 96° East 474 545 31,100 387 Climbing Minneapolis Center
Thu 10:15:32 AM 48.4528 -100.2025 125° Southeast 471 542 31,500 387 Climbing Minneapolis Center
Thu 10:16:34 AM 48.3756 -100.0433 126° Southeast 472 543 31,900 387 Climbing Minneapolis Center
Thu 10:17:36 AM 48.2997 -99.8867 126° Southeast 468 539 32,300 387 Climbing Minneapolis Center
Thu 10:18:38 AM 48.2244 -99.7300 126° Southeast 465 535 32,700 339 Climbing Minneapolis Center
Thu 10:19:40 AM 48.1336 -99.5439 126° Southeast 464 534 33,000 145 Climbing Minneapolis Center
Thu 10:20:42 AM 48.0592 -99.3836 125° Southeast 469 540 33,000  Level Minneapolis Center
Thu 10:21:56 AM 47.9806 -99.2239 126° Southeast 476 548 33,000  Level Minneapolis Center
Thu 10:22:59 AM 47.8839 -99.0317 127° Southeast 482 555 33,000  Level Minneapolis Center
Thu 10:24:01 AM 47.8022 -98.8689 127° Southeast 490 564 33,000  Level Minneapolis Center
Thu 10:25:03 AM 47.7203 -98.7053 127° Southeast 493 567 33,000  Level Minneapolis Center
Thu 10:26:05 AM 47.6214 -98.5106 127° Southeast 495 570 33,000  Level Minneapolis Center
Thu 10:27:07 AM 47.5392 -98.3506 127° Southeast 494 568 33,000  Level Minneapolis Center
Thu 10:28:09 AM 47.4572 -98.1922 127° Southeast 493 567 33,000  Level Minneapolis Center
Thu 10:29:11 AM 47.3758 -98.0336 127° Southeast 495 570 33,000  Level Minneapolis Center
Thu 10:30:14 AM 47.2778 -97.8461 128° Southeast 494 568 33,000  Level Minneapolis Center
Thu 10:31:15 AM 47.2106 -97.7153 127° Southeast 491 565 33,000  Level Minneapolis Center
Thu 10:32:18 AM 47.1150 -97.5319 127° Southeast 487 560 33,000  Level Minneapolis Center
Thu 10:33:20 AM 47.0328 -97.3767 128° Southeast 486 559 33,000  Level Minneapolis Center
Thu 10:34:22 AM 46.9514 -97.2231 128° Southeast 481 554 33,000  Level Minneapolis Center
Thu 10:35:24 AM 46.8531 -97.0386 128° Southeast 481 554 33,000  Level Minneapolis Center
Thu 10:36:26 AM 46.7700 -96.8839 128° Southeast 484 557 33,000  Level Minneapolis Center
Thu 10:37:28 AM 46.6831 -96.7394 131° Southeast 477 549 33,000  Level Minneapolis Center
Thu 10:38:30 AM 46.5922 -96.5997 133° Southeast 476 548 33,000  Level Minneapolis Center
Thu 10:39:32 AM 46.5031 -96.4561 132° Southeast 480 552 33,000  Level Minneapolis Center
Thu 10:40:34 AM 46.3947 -96.2864 133° Southeast 479 551 33,000  Level Minneapolis Center
Thu 10:41:36 AM 46.3044 -96.1442 133° Southeast 481 554 33,000  Level Minneapolis Center
Thu 10:42:39 AM 46.2144 -96.0036 133° Southeast 480 552 33,000  Level Minneapolis Center
Thu 10:43:41 AM 46.1278 -95.8694 133° Southeast 478 550 33,000  Level Minneapolis Center
Thu 10:44:43 AM 46.0186 -95.7014 133° Southeast 479 551 33,000  Level Minneapolis Center
Thu 10:45:45 AM 45.9278 -95.5625 133° Southeast 478 550 33,000  Level Minneapolis Center
Thu 10:46:47 AM 45.8367 -95.4233 133° Southeast 479 551 33,000  Level Minneapolis Center
Thu 10:47:49 AM 45.7456 -95.2839 133° Southeast 479 551 33,000  Level Minneapolis Center
Thu 10:48:51 AM 45.6542 -95.1478 134° Southeast 477 549 33,000  Level Minneapolis Center
Thu 10:49:53 AM 45.5503 -94.9911 133° Southeast 476 548 33,000  Level Minneapolis Center
Thu 10:50:55 AM 45.4594 -94.8561 134° Southeast 474 545 33,000  Level Minneapolis Center
Thu 10:51:57 AM 45.3647 -94.7111 133° Southeast 469 540 33,000  Level Minneapolis Center
Thu 10:52:59 AM 45.2786 -94.5881 135° Southeast 471 542 33,000  Level Minneapolis Center
Thu 10:54:01 AM 45.1903 -94.4542 133° Southeast 468 539 33,000  Level Minneapolis Center
Thu 10:55:03 AM 45.0825 -94.2975 134° Southeast 465 535 33,000  Level Minneapolis Center
Thu 10:56:06 AM 44.9936 -94.1669 134° Southeast 465 535 33,000  Level Minneapolis Center
Thu 10:57:08 AM 44.9039 -94.0389 135° Southeast 462 532 33,000  Level Minneapolis Center
Thu 10:58:10 AM 44.8136 -93.9100 135° Southeast 464 534 33,000 -242 Level Minneapolis Center
Thu 10:59:12 AM 44.7247 -93.7817 134° Southeast 460 529 32,500 -968 Descending Minneapolis Center
Thu 11:00:14 AM 44.6172 -93.6297 135° Southeast 462 532 31,000 -726 Descending Minneapolis Center
Thu 11:01:16 AM 44.5297 -93.5067 135° Southeast 453 521 31,000  Level Minneapolis Center
Thu 11:02:18 AM 44.4444 -93.3853 135° Southeast 444 511 31,000  Level Minneapolis Center
Thu 11:03:20 AM 44.3567 -93.2628 135° Southeast 449 517 31,000  Level Minneapolis Center
Thu 11:04:22 AM 44.2681 -93.1367 134° Southeast 457 526 31,000  Level Minneapolis Center
Thu 11:05:24 AM 44.1603 -92.9858 135° Southeast 460 529 31,000  Level Minneapolis Center
Thu 11:06:26 AM 44.0875 -92.8833 135° Southeast 465 535 31,000  Level Minneapolis Center
Thu 11:07:28 AM 43.9769 -92.7322 135° Southeast 466 536 31,000  Level Minneapolis Center
Thu 11:08:30 AM 43.8836 -92.6058 136° Southeast 468 539 31,000  Level Minneapolis Center
Thu 11:09:33 AM 43.7928 -92.4775 134° Southeast 467 537 31,000  Level Minneapolis Center
Thu 11:10:35 AM 43.6997 -92.3511 136° Southeast 471 542 31,000  Level Minneapolis Center
Thu 11:11:37 AM 43.5900 -92.2019 135° Southeast 465 535 31,000  Level Minneapolis Center
Thu 11:12:39 AM 43.4986 -92.0811 136° Southeast 460 529 31,000  Level Minneapolis Center
Thu 11:13:41 AM 43.4075 -91.9589 136° Southeast 460 529 31,000  Level Minneapolis Center
Thu 11:14:43 AM 43.3172 -91.8344 135° Southeast 460 529 31,000  Level Minneapolis Center
Thu 11:15:45 AM 43.2253 -91.7131 136° Southeast 462 532 31,000  Level Minneapolis Center
Thu 11:16:47 AM 43.1456 -91.5375 122° Southeast 462 532 31,000  Level Minneapolis Center
Thu 11:17:49 AM 43.0906 -91.3800 116° Southeast 459 528 31,000  Level Minneapolis Center
Thu 11:18:51 AM 43.0347 -91.2247 116° Southeast 457 526 31,000  Level Minneapolis Center
Thu 11:19:53 AM 42.9794 -91.0683 116° Southeast 458 527 31,000  Level Minneapolis Center
Thu 11:20:55 AM 42.9253 -90.9144 116° Southeast 455 524 31,000  Level Minneapolis Center
Thu 11:21:58 AM 42.8706 -90.7603 116° Southeast 453 521 31,000  Level Minneapolis Center
Thu 11:23:27 AM 42.7858 -90.5169 115° Southeast 452 520 31,000  Level Chicago Center
Thu 11:24:29 AM 42.7303 -90.3633 116° Southeast 455 524 31,000 -774 Level Chicago Center
Thu 11:25:31 AM 42.6744 -90.2072 116° Southeast 463 533 29,400 -1,756 Descending Chicago Center
Thu 11:26:32 AM 42.6144 -90.0475 117° Southeast 477 549 27,400 -2,049 Descending Chicago Center
Thu 11:27:34 AM 42.5519 -89.8700 115° Southeast 462 532 25,200 -2,081 Descending Chicago Center
Thu 11:28:36 AM 42.5183 -89.7044 105° East 461 531 23,100 -1,984 Descending Chicago Center
Thu 11:29:38 AM 42.5131 -89.5344 92° East 455 524 21,100 -2,081 Descending Chicago Center
Thu 11:30:40 AM 42.5106 -89.3397 91° East 445 512 18,800 -1,984 Descending Chicago Center
Thu 11:31:42 AM 42.5083 -89.1758 91° East 437 503 17,000 -1,839 Descending Chicago Center
Thu 11:32:44 AM 42.5067 -89.0175 91° East 423 487 15,000 -1,887 Descending Chicago Center
Thu 11:33:46 AM 42.4864 -88.8689 100° East 407 468 13,100 -1,355 Descending Chicago Center
Thu 11:34:48 AM 42.4436 -88.7306 113° Southeast 398 458 12,200 -1,113 Descending Chicago Center
Thu 11:35:50 AM 42.3964 -88.5753 112° Southeast 382 440 10,800 -1,065 Descending Chicago Center
Thu 11:36:52 AM 42.3586 -88.4481 112° Southeast 369 425 10,000 -387 Descending Chicago Center
Thu 11:37:54 AM 42.3083 -88.3383 122° Southeast 358 412 10,000  Level Chicago Center
Thu 11:38:56 AM 42.2447 -88.2333 129° Southeast 360 414 10,000 -146 Level Chicago Center
Thu 11:39:57 AM 42.1864 -88.1347 129° Southeast 341 392 9,700 -1,073 Descending Chicago Center
Thu 11:40:59 AM 42.1261 -88.0669 140° Southeast 292 336 7,800 -1,409 Descending Chicago Center
Thu 11:41:52 AM 42.1000 -87.9667 109° East 293 337 7,000 -531 Descending Chicago TRACON
Thu 11:42:52 AM 42.1000 -87.8667 90° East 276 318 6,800 -1,128 Descending Chicago TRACON
Thu 11:44:05 AM 42.0800 -87.7628 105° East 250 288 4,500 -1,689 Descending Chicago Center
Thu 11:45:07 AM 42.0389 -87.7111 137° Southeast 244 281 3,000 -1,452 Descending Chicago Center

Login

Don't have an account? Register now (free) for customized features, flight alerts, and more!